Weather reports worldwide

Advertisment
Autilla del Pino, Spain (8072): temperature & dewpoint: 30.05.2020 20:00:00 - 05.06.2020 20:00:00 (CEST)Autilla del Pino, Spain (8072): wind speed & gusts: 30.05.2020 20:00:00 - 05.06.2020 20:00:00 (CEST)Autilla del Pino, Spain (8072): wind direction: 30.05.2020 20:00:00 - 05.06.2020 20:00:00 (CEST)Autilla del Pino, Spain (8072): precipitation: 30.05.2020 20:00:00 - 05.06.2020 20:00:00 (CEST)
Date & Time tt [°C] td [°C] ff [km/h] ff [kn] fx [km/h] fx [kn] dd rr [mm]
05.06.2020 20:00:00 24,2 5,9 12 7 21 12 W -
05.06.2020 19:00:00 24,7 6,4 8 4 23 12 W 0,0
05.06.2020 18:00:00 24,2 6,8 14 7 31 17 W 0,0
05.06.2020 17:00:00 23,9 6,2 12 7 30 16 W 0,0
05.06.2020 16:00:00 22,8 5,6 14 8 23 13 W 0,0
05.06.2020 15:00:00 21,5 5,5 10 6 27 14 WNW 0,0
05.06.2020 14:00:00 19,8 5,1 13 7 25 13 W -
05.06.2020 13:00:00 18,0 4,5 11 6 24 13 WNW 0,0
05.06.2020 12:00:00 16,6 4,6 13 7 23 13 W 0,0
05.06.2020 11:00:00 15,0 3,2 11 6 19 10 W 0,0
05.06.2020 10:00:00 13,6 5,9 8 4 16 9 SW 0,0
05.06.2020 09:00:00 11,1 6,8 3 2 6 3 WSW 0,0
05.06.2020 08:00:00 8,6 6,5 3 2 10 5 WNW -
05.06.2020 07:00:00 5,4 5,0 5 3 13 7 W 0,0
05.06.2020 06:00:00 4,7 4,1 8 5 13 7 SW 0,0
05.06.2020 05:00:00 5,9 5,0 1 0 8 4 W 0,0
05.06.2020 04:00:00 5,7 4,8 6 4 8 5 WNW 0,0
05.06.2020 03:00:00 6,4 5,5 1 1 10 5 S 0,0
05.06.2020 02:00:00 7,5 6,2 2 1 10 6 NNW -
05.06.2020 01:00:00 7,7 6,1 8 4 11 6 NNE 0,0
05.06.2020 00:00:00 9,2 6,8 5 3 18 10 NNE 0,0
04.06.2020 23:00:00 9,6 6,5 12 6 18 10 NNE 0,0
04.06.2020 22:00:00 11,3 5,8 10 6 23 13 N 0,0
04.06.2020 21:00:00 14,7 3,8 19 10 39 21 NNW 0,0
04.06.2020 20:00:00 16,2 3,6 19 10 32 17 NNW -
04.06.2020 19:00:00 16,2 3,2 19 10 35 19 NW 0,0
04.06.2020 18:00:00 17,6 2,7 23 12 45 24 NNW 0,0
04.06.2020 17:00:00 18,6 3,6 26 14 42 23 NNW 0,0
04.06.2020 16:00:00 16,7 3,4 25 14 42 23 NNW 0,0
04.06.2020 15:00:00 16,0 2,7 23 13 42 23 NW 0,0
04.06.2020 14:00:00 16,4 3,4 21 12 37 20 NW -
04.06.2020 13:00:00 14,9 5,5 18 10 35 19 NW 0,0
04.06.2020 12:00:00 15,3 6,1 20 11 34 19 NW 0,0
04.06.2020 11:00:00 14,1 7,0 21 12 29 16 WNW 0,0
04.06.2020 10:00:00 12,6 8,7 17 9 24 13 WNW 0,0
04.06.2020 09:00:00 11,2 8,1 15 8 21 11 W 0,0
04.06.2020 08:00:00 10,1 8,0 9 5 14 7 WNW -
04.06.2020 07:00:00 8,5 7,6 9 5 11 6 WNW 0,0
04.06.2020 06:00:00 9,3 8,3 10 6 13 7 NNW 0,0
04.06.2020 05:00:00 11,0 10,2 1 1 7 4 ESE 0,0
04.06.2020 04:00:00 11,4 10,6 6 3 14 8 ENE 0,0
04.06.2020 03:00:00 12,2 11,8 9 5 15 8 NNW 0,0
04.06.2020 02:00:00 12,1 11,3 6 4 10 5 ESE -
04.06.2020 01:00:00 12,2 11,4 8 4 14 8 E 0,1
04.06.2020 00:00:00 12,4 11,7 9 5 16 8 ESE 1,2
03.06.2020 23:00:00 12,7 11,2 8 4 24 13 E 0,0
03.06.2020 22:00:00 13,1 12,4 10 6 22 12 ESE 0,1
03.06.2020 21:00:00 13,2 12,4 15 8 21 11 ESE 1,5
03.06.2020 20:00:00 13,8 12,8 14 8 21 11 ENE -
03.06.2020 19:00:00 14,5 13,8 7 4 17 9 E 0,1
03.06.2020 18:00:00 13,4 12,6 13 7 23 12 NE 8,6
03.06.2020 17:00:00 13,6 12,1 19 10 51 28 NE 0,1
03.06.2020 16:00:00 24,5 10,8 31 17 70 38 W 0,0
03.06.2020 15:00:00 24,6 10,9 17 9 31 17 W 0,0
03.06.2020 14:00:00 23,2 11,6 14 7 21 11 WNW -
03.06.2020 13:00:00 23,2 11,6 6 3 22 12 W 0,0
03.06.2020 12:00:00 21,1 12,0 10 6 22 12 W 0,0
03.06.2020 11:00:00 20,0 13,0 12 7 22 12 W 0,0
03.06.2020 10:00:00 17,8 13,4 7 4 14 8 WSW 0,0
03.06.2020 09:00:00 15,3 14,0 1 1 4 2 N 0,0
03.06.2020 08:00:00 12,9 12,1 1 0 6 3 WNW -
03.06.2020 07:00:00 10,9 10,4 5 3 10 6 WNW 0,0
03.06.2020 06:00:00 11,2 10,8 9 5 10 6 NNW 0,0
03.06.2020 05:00:00 11,9 11,3 7 4 10 6 NNE 0,0
03.06.2020 04:00:00 14,5 13,9 9 5 14 7 ENE 0,0
03.06.2020 03:00:00 15,7 14,4 12 6 25 13 E 0,0
03.06.2020 02:00:00 15,5 12,6 13 7 20 11 E -
03.06.2020 01:00:00 16,5 11,4 16 9 29 16 E 0,0
03.06.2020 00:00:00 16,5 11,9 15 8 24 13 ENE 0,0
02.06.2020 23:00:00 17,8 12,4 18 10 30 16 ENE 0,0
02.06.2020 22:00:00 18,6 12,3 23 12 44 24 ENE 0,0
02.06.2020 21:00:00 25,2 7,3 5 3 13 7 WSW 0,0
02.06.2020 20:00:00 27,5 7,8 9 5 20 11 WSW -
02.06.2020 19:00:00 27,8 7,6 8 4 23 12 SW 0,0
02.06.2020 18:00:00 27,5 8,9 6 4 14 8 S 0,0
02.06.2020 17:00:00 25,6 8,5 5 3 16 9 SE 0,0
02.06.2020 16:00:00 26,3 8,8 3 2 16 9 E 0,0
02.06.2020 15:00:00 25,0 8,9 7 4 20 11 S 0,0
02.06.2020 14:00:00 26,5 10,2 9 5 21 11 SSW -
02.06.2020 13:00:00 25,4 11,2 9 5 20 11 W 0,0
02.06.2020 12:00:00 23,2 10,9 9 5 16 8 NW 0,0
02.06.2020 11:00:00 20,9 14,0 2 1 11 6 SE 0,0
02.06.2020 10:00:00 17,8 14,1 6 3 11 6 ESE 0,0
02.06.2020 09:00:00 15,8 13,9 8 4 13 7 SW 0,0
02.06.2020 08:00:00 13,8 13,1 5 3 11 6 ESE -
02.06.2020 07:00:00 12,5 11,7 7 4 13 7 E 0,0
02.06.2020 06:00:00 13,0 11,8 7 4 13 7 E 0,0
02.06.2020 05:00:00 14,4 13,0 12 6 19 11 ESE 0,0
02.06.2020 04:00:00 15,2 13,3 15 8 21 12 E 0,0
02.06.2020 03:00:00 16,0 13,2 16 8 21 11 E 0,0
02.06.2020 02:00:00 17,3 13,1 15 8 22 12 E -
02.06.2020 01:00:00 17,8 12,8 13 7 18 10 E 0,0
02.06.2020 00:00:00 17,5 12,2 15 8 20 11 ENE 0,0
01.06.2020 23:00:00 18,2 12,2 13 7 16 9 NNE 0,0
01.06.2020 22:00:00 21,2 9,8 5 3 9 5 ESE 0,0
01.06.2020 21:00:00 22,9 11,3 3 2 5 3 ENE 0,0
01.06.2020 20:00:00 24,9 8,0 2 1 8 4 ESE -
01.06.2020 19:00:00 24,9 8,0 4 2 22 12 SE 0,0
01.06.2020 18:00:00 27,1 8,5 3 2 14 8 S 0,0
01.06.2020 17:00:00 26,9 8,8 3 2 18 10 E 0,0
01.06.2020 16:00:00 26,0 8,0 6 3 18 10 NW 0,0
01.06.2020 15:00:00 25,0 7,6 6 3 17 9 S 0,0
01.06.2020 14:00:00 24,1 8,9 4 2 16 9 ENE -
01.06.2020 13:00:00 22,9 9,7 5 3 13 7 E 0,0
01.06.2020 12:00:00 21,9 12,2 0 0 14 8 SW 0,0
01.06.2020 11:00:00 19,6 12,1 3 2 14 8 ESE 0,0
01.06.2020 10:00:00 17,4 12,3 6 3 12 6 ESE 0,0
01.06.2020 09:00:00 15,3 12,7 7 4 9 5 E 0,0
01.06.2020 08:00:00 12,8 12,2 5 3 9 5 E -
01.06.2020 07:00:00 10,3 9,8 3 2 9 5 ENE 0,0
01.06.2020 06:00:00 10,7 10,0 6 3 7 4 E 0,0
01.06.2020 05:00:00 11,8 11,0 0 0 5 3 ESE 0,0
01.06.2020 04:00:00 12,5 11,7 4 2 17 9 W 0,0
01.06.2020 03:00:00 12,2 11,6 10 6 16 8 S 0,0
01.06.2020 02:00:00 13,0 12,5 10 6 17 9 S -
01.06.2020 01:00:00 13,1 12,4 13 7 24 13 S 0,0
01.06.2020 00:00:00 13,3 12,5 11 6 18 10 S 0,0
31.05.2020 23:00:00 13,2 12,1 13 7 48 26 WSW 1,0
31.05.2020 22:00:00 13,4 11,8 37 20 52 28 W 1,0
31.05.2020 21:00:00 17,1 9,8 23 12 41 22 WNW 0,0
31.05.2020 20:00:00 19,1 9,3 26 14 44 24 W -
31.05.2020 19:00:00 23,5 11,6 3 2 14 8 NNE 0,0
31.05.2020 18:00:00 23,2 10,3 9 5 14 8 N 0,0
31.05.2020 17:00:00 24,5 11,4 5 3 16 9 N 0,0
31.05.2020 16:00:00 24,9 11,8 6 4 18 10 WNW 0,0
31.05.2020 15:00:00 23,7 12,6 11 6 21 11 NW 0,0
31.05.2020 14:00:00 20,9 11,6 4 2 16 9 N -
31.05.2020 13:00:00 17,0 13,2 16 9 30 16 WNW 0,0
31.05.2020 12:00:00 17,0 13,2 25 13 36 19 WNW 0,1
31.05.2020 11:00:00 22,1 12,3 29 16 38 21 WNW 0,0
31.05.2020 10:00:00 21,3 13,3 13 7 17 9 NW 0,0
31.05.2020 09:00:00 20,3 14,2 6 3 13 7 SW 0,0
31.05.2020 08:00:00 15,9 12,1 13 7 14 7 S -
31.05.2020 07:00:00 13,8 10,6 9 5 11 6 S 0,0
31.05.2020 06:00:00 14,4 10,6 5 3 13 7 SE 0,0
31.05.2020 05:00:00 14,9 11,1 5 3 14 8 SSE 0,0
31.05.2020 04:00:00 16,2 11,6 7 4 19 10 SSE 0,3
31.05.2020 03:00:00 17,2 10,3 11 6 20 11 W 0,0
31.05.2020 02:00:00 16,8 9,9 6 4 15 8 W -
31.05.2020 01:00:00 16,7 9,2 11 6 25 14 SW 0,0
31.05.2020 00:00:00 18,3 8,3 21 11 32 17 SW 0,0
30.05.2020 23:00:00 19,4 8,4 23 12 38 20 SW 0,0
30.05.2020 22:00:00 21,4 9,6 29 16 43 23 SW 0,0
30.05.2020 21:00:00 25,4 8,4 3 2 7 4 SSE 0,0
30.05.2020 20:00:00 27,4 8,3 6 3 17 9 WSW -

tt = temperature
td = dewpoint
ff = wind speed
fx = gusts
dd = wind direction
rr = precipitation

Next stations